createdAt,value
2017-11-17T00:01:33.947Z,14.93
2017-11-17T00:04:01.552Z,17.52
2017-11-17T00:06:29.251Z,16.12
2017-11-17T00:08:56.851Z,14.40
2017-11-17T00:11:25.261Z,17.25
2017-11-17T00:13:52.905Z,14.95
2017-11-17T00:16:20.524Z,15.32
2017-11-17T00:18:48.179Z,15.48
2017-11-17T00:21:15.797Z,15.88
2017-11-17T00:23:44.506Z,15.93
2017-11-17T00:26:12.132Z,15.27
2017-11-17T00:28:40.058Z,13.90
2017-11-17T00:31:07.678Z,14.80
2017-11-17T00:33:35.687Z,17.65
2017-11-17T00:36:03.301Z,16.00
2017-11-17T00:38:30.945Z,15.45
2017-11-17T00:40:58.587Z,16.67
2017-11-17T00:43:26.224Z,16.73
2017-11-17T00:45:54.616Z,16.12
2017-11-17T00:48:23.316Z,15.88
2017-11-17T00:50:51.690Z,14.87
2017-11-17T00:53:20.078Z,14.70
2017-11-17T00:55:48.505Z,15.13
2017-11-17T00:58:16.122Z,14.90
2017-11-17T01:00:44.539Z,14.38
2017-11-17T01:03:12.165Z,15.68
2017-11-17T01:05:40.973Z,15.83
2017-11-17T01:08:09.404Z,15.55
2017-11-17T01:10:37.340Z,15.57
2017-11-17T01:13:05.717Z,14.82
2017-11-17T01:15:34.291Z,14.23
2017-11-17T01:18:02.717Z,14.60
2017-11-17T01:20:30.484Z,14.37
2017-11-17T01:22:58.157Z,13.07
2017-11-17T01:25:25.863Z,14.80
2017-11-17T01:27:54.366Z,17.15
2017-11-17T01:30:21.975Z,16.63
2017-11-17T01:32:49.940Z,15.07
2017-11-17T01:35:17.637Z,16.30
2017-11-17T01:37:45.276Z,14.73
2017-11-17T01:40:12.966Z,13.62
2017-11-17T01:42:40.632Z,15.13
2017-11-17T01:45:08.295Z,14.77
2017-11-17T01:47:36.861Z,14.87
2017-11-17T01:50:04.540Z,14.07
2017-11-17T01:52:32.216Z,14.02
2017-11-17T01:54:59.850Z,15.15
2017-11-17T01:57:27.834Z,14.35
2017-11-17T01:59:55.527Z,14.40
2017-11-17T02:02:23.187Z,14.20
2017-11-17T02:04:51.742Z,12.73
2017-11-17T02:07:20.197Z,13.05
2017-11-17T02:09:47.803Z,13.43
2017-11-17T02:12:15.444Z,15.32
2017-11-17T02:14:44.220Z,14.27
2017-11-17T02:17:12.654Z,13.23
2017-11-17T02:19:40.631Z,13.68
2017-11-17T02:22:08.314Z,11.88
2017-11-17T02:24:36.041Z,15.27
2017-11-17T02:27:03.684Z,12.40
2017-11-17T02:29:32.161Z,11.10
2017-11-17T02:31:59.801Z,14.02
2017-11-17T02:34:27.528Z,10.70
2017-11-17T02:36:55.136Z,13.38
2017-11-17T02:39:23.925Z,11.10
2017-11-17T02:41:51.528Z,11.98
2017-11-17T02:44:19.292Z,13.27
2017-11-17T02:46:46.892Z,12.27
2017-11-17T02:49:14.516Z,11.45
2017-11-17T02:51:42.141Z,13.30
2017-11-17T02:54:09.770Z,10.95
2017-11-17T02:56:37.400Z,10.40
2017-11-17T02:59:05.011Z,12.73
2017-11-17T03:01:33.424Z,10.80
2017-11-17T03:04:01.042Z,10.32
2017-11-17T03:06:28.836Z,11.70
2017-11-17T03:08:57.205Z,10.93
2017-11-17T03:11:25.607Z,11.00
2017-11-17T03:13:53.982Z,11.30
2017-11-17T03:16:22.409Z,10.40
2017-11-17T03:18:50.009Z,11.27
2017-11-17T03:21:17.641Z,10.02
2017-11-17T03:23:45.282Z,9.95
2017-11-17T03:26:13.081Z,9.07
2017-11-17T03:28:40.694Z,11.60
2017-11-17T03:31:09.123Z,10.25
2017-11-17T03:33:36.744Z,10.63
2017-11-17T03:36:04.399Z,10.63
2017-11-17T03:38:31.996Z,9.50
2017-11-17T03:40:59.612Z,10.63
2017-11-17T03:43:27.265Z,10.55
2017-11-17T03:45:54.860Z,11.35
2017-11-17T03:48:22.864Z,11.27
2017-11-17T03:50:50.489Z,12.05
2017-11-17T03:53:18.370Z,10.95
2017-11-17T03:55:45.986Z,10.73
2017-11-17T03:58:13.671Z,10.80
2017-11-17T04:00:41.330Z,11.88
2017-11-17T04:03:08.991Z,10.68
2017-11-17T04:05:36.603Z,12.27
2017-11-17T04:08:04.231Z,12.13
2017-11-17T04:10:31.862Z,10.98
2017-11-17T04:13:00.438Z,10.88
2017-11-17T04:15:28.858Z,11.60
2017-11-17T04:17:56.473Z,11.60
2017-11-17T04:20:24.381Z,11.20
2017-11-17T04:22:52.809Z,11.67
2017-11-17T04:25:20.428Z,9.52
2017-11-17T04:27:48.058Z,10.35
2017-11-17T04:30:15.698Z,9.00
2017-11-17T04:32:43.314Z,10.40
2017-11-17T04:35:11.715Z,12.00
2017-11-17T04:37:39.314Z,9.88
2017-11-17T04:40:07.119Z,10.52
2017-11-17T04:42:35.553Z,10.73
2017-11-17T04:45:04.280Z,9.57
2017-11-17T04:47:31.905Z,9.57
2017-11-17T04:49:59.566Z,9.50
2017-11-17T04:52:27.198Z,10.60
2017-11-17T04:54:54.820Z,9.03
2017-11-17T04:57:22.448Z,9.50
2017-11-17T04:59:50.821Z,8.95
2017-11-17T05:02:18.836Z,10.70
2017-11-17T05:04:46.471Z,10.53
2017-11-17T05:07:14.226Z,10.70
2017-11-17T05:09:41.902Z,10.18
2017-11-17T05:12:10.280Z,9.75
2017-11-17T05:14:38.661Z,11.25
2017-11-17T05:17:06.302Z,11.23
2017-11-17T05:19:33.977Z,8.93
2017-11-17T05:22:01.623Z,10.15
2017-11-17T05:24:29.218Z,11.02
2017-11-17T05:26:57.749Z,10.60
2017-11-17T05:29:25.359Z,10.05
2017-11-17T05:31:54.928Z,10.40
2017-11-17T05:34:22.591Z,11.82
2017-11-17T05:36:50.187Z,11.55
2017-11-17T05:39:17.819Z,9.63
2017-11-17T05:41:45.464Z,10.98
2017-11-17T05:44:13.852Z,10.30
2017-11-17T05:46:42.236Z,11.77
2017-11-17T05:49:10.639Z,10.30
2017-11-17T05:51:38.279Z,11.30
2017-11-17T05:54:07.639Z,10.27
2017-11-17T05:56:36.818Z,10.98
2017-11-17T05:59:04.535Z,11.53
2017-11-17T06:01:32.164Z,11.18
2017-11-17T06:03:59.935Z,9.35
2017-11-17T06:06:27.533Z,9.73
2017-11-17T06:08:55.174Z,9.55
2017-11-17T06:11:22.782Z,10.30
2017-11-17T06:13:51.189Z,8.38
2017-11-17T06:16:18.836Z,9.37
2017-11-17T06:18:47.479Z,9.50
2017-11-17T06:21:15.082Z,9.55
2017-11-17T06:23:42.699Z,9.68
2017-11-17T06:26:10.348Z,9.60
2017-11-17T06:28:37.949Z,8.98
2017-11-17T06:31:05.563Z,9.23
2017-11-17T06:33:33.955Z,10.27
2017-11-17T06:36:01.606Z,10.70
2017-11-17T06:38:29.980Z,9.57
2017-11-17T06:40:57.617Z,10.23
2017-11-17T06:43:25.219Z,8.68
2017-11-17T06:45:52.985Z,8.75
2017-11-17T06:48:20.597Z,11.17
2017-11-17T06:50:48.238Z,9.05
2017-11-17T06:53:15.857Z,10.30
2017-11-17T06:55:43.511Z,11.27
2017-11-17T06:58:14.132Z,10.07
2017-11-17T07:00:41.772Z,8.88
2017-11-17T07:03:09.387Z,9.50
2017-11-17T07:05:37.018Z,10.30
2017-11-17T07:08:04.619Z,9.35
2017-11-17T07:10:32.371Z,8.00
2017-11-17T07:13:01.002Z,10.25
2017-11-17T07:15:28.620Z,9.00
2017-11-17T07:17:56.287Z,10.63
2017-11-17T07:20:24.947Z,8.73
2017-11-17T07:22:53.440Z,8.07
2017-11-17T07:25:21.982Z,10.20
2017-11-17T07:27:49.622Z,9.00
2017-11-17T07:30:17.224Z,9.05
2017-11-17T07:32:45.628Z,8.48
2017-11-17T07:35:13.267Z,7.28
2017-11-17T07:37:40.917Z,10.33
2017-11-17T07:40:08.527Z,8.35
2017-11-17T07:42:37.242Z,8.45
2017-11-17T07:45:04.851Z,8.45
2017-11-17T07:47:32.466Z,9.03
2017-11-17T07:50:00.098Z,7.82
2017-11-17T07:52:28.502Z,7.95
2017-11-17T07:54:56.127Z,8.68
2017-11-17T07:57:23.736Z,8.50
2017-11-17T07:59:51.460Z,7.85
2017-11-17T08:02:19.076Z,7.82
2017-11-17T08:04:46.739Z,8.75
2017-11-17T08:07:15.316Z,6.93
2017-11-17T08:09:42.982Z,9.50
2017-11-17T08:12:11.363Z,8.47
2017-11-17T08:14:39.802Z,7.68
2017-11-17T08:17:19.091Z,8.57
2017-11-17T08:19:46.734Z,9.32
2017-11-17T08:22:15.112Z,6.97
2017-11-17T08:24:43.534Z,8.55
2017-11-17T08:27:11.149Z,7.87
2017-11-17T08:29:38.751Z,7.72
2017-11-17T08:32:07.190Z,7.43
2017-11-17T08:34:34.799Z,6.35
2017-11-17T08:37:03.197Z,7.95
2017-11-17T08:39:30.813Z,6.50
2017-11-17T08:41:58.558Z,6.20
2017-11-17T08:44:26.214Z,5.37
2017-11-17T08:46:53.834Z,6.55
2017-11-17T08:49:22.229Z,5.23
2017-11-17T08:51:51.526Z,5.15
2017-11-17T08:54:19.912Z,6.43
2017-11-17T08:56:47.630Z,4.00
2017-11-17T08:59:15.373Z,4.33
2017-11-17T09:01:44.032Z,4.28
2017-11-17T09:04:12.445Z,4.62
2017-11-17T09:06:40.059Z,4.50
2017-11-17T09:09:07.819Z,3.75
2017-11-17T09:11:35.426Z,4.22
2017-11-17T09:14:03.818Z,3.08
2017-11-17T09:16:32.192Z,3.35
2017-11-17T09:19:00.288Z,3.10
2017-11-17T09:21:27.891Z,3.45
2017-11-17T09:23:55.552Z,2.50
2017-11-17T09:26:23.250Z,3.30
2017-11-17T09:28:51.908Z,2.95
2017-11-17T09:31:20.332Z,3.25
2017-11-17T09:33:48.098Z,4.45
2017-11-17T09:36:15.779Z,3.83
2017-11-17T09:38:43.458Z,3.62
2017-11-17T09:41:11.477Z,2.80
2017-11-17T09:43:39.154Z,2.17
2017-11-17T09:46:06.766Z,3.45
2017-11-17T09:48:35.182Z,2.15
2017-11-17T09:51:03.232Z,2.53
2017-11-17T09:53:31.631Z,2.20
2017-11-17T09:55:59.376Z,2.60
2017-11-17T09:58:27.772Z,2.60
2017-11-17T10:00:55.415Z,1.90
2017-11-17T10:03:24.694Z,3.95
2017-11-17T10:05:52.354Z,1.65
2017-11-17T10:08:19.981Z,2.67
2017-11-17T10:10:47.774Z,2.62
2017-11-17T10:13:15.379Z,2.33
2017-11-17T10:15:43.836Z,3.10
2017-11-17T10:18:11.422Z,2.08
2017-11-17T10:20:39.039Z,3.45
2017-11-17T10:23:06.664Z,3.10
2017-11-17T10:25:34.258Z,2.85
2017-11-17T10:28:02.672Z,2.00
2017-11-17T10:30:30.293Z,1.75
2017-11-17T10:32:58.719Z,1.87
2017-11-17T10:35:26.380Z,4.87
2017-11-17T10:37:54.025Z,2.40
2017-11-17T10:40:21.669Z,3.78
2017-11-17T10:42:50.353Z,2.50
2017-11-17T10:45:18.008Z,3.30
2017-11-17T10:47:45.754Z,2.42
2017-11-17T10:50:13.453Z,2.45
2017-11-17T10:52:41.105Z,3.67
2017-11-17T10:55:08.710Z,2.37
2017-11-17T10:57:37.077Z,3.43
2017-11-17T11:00:05.618Z,2.40
2017-11-17T11:02:33.236Z,2.80
2017-11-17T11:05:01.739Z,3.15
2017-11-17T11:07:29.377Z,2.60
2017-11-17T11:09:57.012Z,3.20
2017-11-17T11:12:24.615Z,2.20
2017-11-17T11:14:52.287Z,2.42
2017-11-17T11:17:19.944Z,1.95
2017-11-17T11:19:48.349Z,1.95
2017-11-17T11:22:15.953Z,3.63
2017-11-17T11:24:43.613Z,3.08
2017-11-17T11:27:12.086Z,2.30
2017-11-17T11:29:39.904Z,2.35
2017-11-17T11:32:07.541Z,2.22
2017-11-17T11:34:35.157Z,3.80
2017-11-17T11:37:03.576Z,2.83
2017-11-17T11:39:31.215Z,2.47
2017-11-17T11:41:58.854Z,2.22
2017-11-17T11:44:26.537Z,3.20
2017-11-17T11:46:55.005Z,2.35
2017-11-17T11:49:22.654Z,2.67
2017-11-17T11:51:50.516Z,2.05
2017-11-17T11:54:19.160Z,2.15
2017-11-17T11:56:47.585Z,2.47
2017-11-17T11:59:15.225Z,1.45
2017-11-17T12:01:43.634Z,3.25
2017-11-17T12:04:11.217Z,3.30
2017-11-17T12:06:38.824Z,3.12
2017-11-17T12:09:07.192Z,3.60
2017-11-17T12:11:34.997Z,1.60
2017-11-17T12:14:02.607Z,2.42
2017-11-17T12:16:30.260Z,1.42
2017-11-17T12:18:57.876Z,3.20
2017-11-17T12:21:26.236Z,2.47
2017-11-17T12:23:53.918Z,2.85
2017-11-17T12:26:22.288Z,1.92
2017-11-17T12:28:49.937Z,1.98
2017-11-17T12:31:17.523Z,2.22
2017-11-17T12:33:45.978Z,2.12
2017-11-17T12:36:13.581Z,1.58
2017-11-17T12:38:42.017Z,1.75
2017-11-17T12:41:09.609Z,1.70
2017-11-17T12:43:37.256Z,2.05
2017-11-17T12:46:04.904Z,1.95
2017-11-17T12:48:32.582Z,1.80
2017-11-17T12:51:01.239Z,1.50
2017-11-17T12:53:28.924Z,2.85
2017-11-17T12:55:56.569Z,2.47
2017-11-17T12:58:24.224Z,2.30
2017-11-17T13:00:52.645Z,2.08
2017-11-17T13:03:20.264Z,2.20
2017-11-17T13:05:48.684Z,2.28
2017-11-17T13:08:16.305Z,1.45
2017-11-17T13:10:43.960Z,2.85
2017-11-17T13:13:11.587Z,2.45
2017-11-17T13:15:39.222Z,1.50
2017-11-17T13:18:07.602Z,2.08
2017-11-17T13:20:36.011Z,2.50
2017-11-17T13:23:03.658Z,2.60
2017-11-17T13:25:31.298Z,2.30
2017-11-17T13:27:58.921Z,1.52
2017-11-17T13:30:27.507Z,2.87
2017-11-17T13:32:55.128Z,1.90
2017-11-17T13:35:22.732Z,2.47
2017-11-17T13:37:50.456Z,1.42
2017-11-17T13:40:18.105Z,4.18
2017-11-17T13:42:45.746Z,1.73
2017-11-17T13:45:13.447Z,2.08
2017-11-17T13:47:41.367Z,1.87
2017-11-17T13:50:10.419Z,2.75
2017-11-17T13:52:38.067Z,2.00
2017-11-17T13:55:05.684Z,2.67
2017-11-17T13:57:34.063Z,1.95
2017-11-17T14:00:01.668Z,1.92
2017-11-17T14:02:29.304Z,1.50
2017-11-17T14:04:58.627Z,2.60
2017-11-17T14:07:26.250Z,2.20
2017-11-17T14:09:55.039Z,1.77
2017-11-17T14:12:23.765Z,3.12
2017-11-17T14:14:52.116Z,2.45
2017-11-17T14:17:19.767Z,2.10
2017-11-17T14:19:47.464Z,2.42
2017-11-17T14:22:17.855Z,2.05
2017-11-17T14:24:46.272Z,2.45
2017-11-17T14:27:13.916Z,2.07
2017-11-17T14:29:41.514Z,3.47
2017-11-17T14:32:09.900Z,2.25
2017-11-17T14:34:38.611Z,1.95
2017-11-17T14:37:06.211Z,2.28
2017-11-17T14:39:33.997Z,2.83
2017-11-17T14:42:01.599Z,3.90
2017-11-17T14:44:29.983Z,2.75
2017-11-17T14:46:57.595Z,1.60
2017-11-17T14:49:25.228Z,1.70
2017-11-17T14:51:52.838Z,2.03
2017-11-17T14:54:20.485Z,2.87
2017-11-17T14:56:48.105Z,2.50
2017-11-17T14:59:15.767Z,2.47
2017-11-17T15:01:43.440Z,2.15
2017-11-17T15:04:11.085Z,2.23
2017-11-17T15:06:39.040Z,1.85
2017-11-17T15:09:06.701Z,1.80
2017-11-17T15:11:34.343Z,1.95
2017-11-17T15:14:01.957Z,2.28
2017-11-17T15:16:30.378Z,2.30
2017-11-17T15:18:58.006Z,2.80
2017-11-17T15:21:26.740Z,3.20
2017-11-17T15:23:54.381Z,3.60
2017-11-17T15:26:22.038Z,2.60
2017-11-17T15:28:49.661Z,2.25
2017-11-17T15:31:17.305Z,2.93
2017-11-17T15:33:44.946Z,3.20
2017-11-17T15:36:12.574Z,2.70
2017-11-17T15:38:40.183Z,2.55
2017-11-17T15:41:07.847Z,3.80
2017-11-17T15:43:35.474Z,3.90
2017-11-17T15:46:03.170Z,3.40
2017-11-17T15:48:30.817Z,2.90
2017-11-17T15:50:58.481Z,3.70
2017-11-17T15:53:26.131Z,2.80
2017-11-17T15:55:53.746Z,3.00
2017-11-17T15:58:21.369Z,3.37
2017-11-17T16:00:48.963Z,2.63
2017-11-17T16:03:17.370Z,3.45
2017-11-17T16:05:45.003Z,2.83
2017-11-17T16:08:13.397Z,3.42
2017-11-17T16:10:41.764Z,3.08
2017-11-17T16:13:09.499Z,3.97
2017-11-17T16:15:37.268Z,3.97
2017-11-17T16:18:05.231Z,3.08
2017-11-17T16:20:32.828Z,2.87
2017-11-17T16:23:00.443Z,3.58
2017-11-17T16:25:28.128Z,3.28
2017-11-17T16:27:55.747Z,4.10
2017-11-17T16:30:24.442Z,3.78
2017-11-17T16:32:52.298Z,5.20
2017-11-17T16:35:20.746Z,4.15
2017-11-17T16:37:48.379Z,5.22
2017-11-17T16:40:16.785Z,4.93
2017-11-17T16:42:44.827Z,3.58
2017-11-17T16:45:13.215Z,4.30
2017-11-17T16:47:41.587Z,3.62
2017-11-17T16:50:09.967Z,3.58
2017-11-17T16:52:38.363Z,3.37
2017-11-17T16:55:06.763Z,3.47
2017-11-17T16:57:34.387Z,3.28
2017-11-17T17:00:02.069Z,2.90
2017-11-17T17:02:31.435Z,2.53
2017-11-17T17:04:59.058Z,3.65
2017-11-17T17:07:27.452Z,3.07
2017-11-17T17:09:55.063Z,4.00
2017-11-17T17:12:22.730Z,3.10
2017-11-17T17:14:50.346Z,2.70
2017-11-17T17:17:17.985Z,4.55
2017-11-17T17:19:45.615Z,3.55
2017-11-17T17:22:13.271Z,4.10
2017-11-17T17:24:41.891Z,4.20
2017-11-17T17:27:09.524Z,3.37
2017-11-17T17:29:37.149Z,3.95
2017-11-17T17:32:04.812Z,3.58
2017-11-17T17:34:33.173Z,4.20
2017-11-17T17:37:00.780Z,3.55
2017-11-17T17:39:28.496Z,2.83
2017-11-17T17:41:56.117Z,2.70
2017-11-17T17:44:23.796Z,2.67
2017-11-17T17:46:51.389Z,4.03
2017-11-17T17:49:19.018Z,2.75
2017-11-17T17:51:46.634Z,3.50
2017-11-17T17:54:15.059Z,4.00
2017-11-17T17:56:42.964Z,4.20
2017-11-17T17:59:10.859Z,2.87
2017-11-17T18:01:39.278Z,4.20
2017-11-17T18:04:07.689Z,4.70
2017-11-17T18:06:35.289Z,2.70
2017-11-17T18:09:02.955Z,3.60
2017-11-17T18:11:30.715Z,5.20
2017-11-17T18:13:59.161Z,3.50
2017-11-17T18:16:26.767Z,4.53
2017-11-17T18:18:54.367Z,3.25
2017-11-17T18:21:22.213Z,4.05
2017-11-17T18:23:49.836Z,3.35
2017-11-17T18:26:17.455Z,4.05
2017-11-17T18:28:45.070Z,3.85
2017-11-17T18:31:12.710Z,3.45
2017-11-17T18:33:40.346Z,3.62
2017-11-17T18:36:08.114Z,4.60
2017-11-17T18:38:36.977Z,4.17
2017-11-17T18:41:04.637Z,3.57
2017-11-17T18:43:32.266Z,4.10
2017-11-17T18:45:59.914Z,3.92
2017-11-17T18:48:27.559Z,4.45
2017-11-17T18:50:55.239Z,3.85
2017-11-17T18:53:22.814Z,3.53
2017-11-17T18:55:51.306Z,5.03
2017-11-17T18:58:18.940Z,4.32
2017-11-17T19:00:46.950Z,5.87
2017-11-17T19:03:14.588Z,4.05
2017-11-17T19:05:42.323Z,5.87
2017-11-17T19:08:09.997Z,5.62
2017-11-17T19:10:38.413Z,3.62
2017-11-17T19:13:06.023Z,4.55
2017-11-17T19:15:34.421Z,4.37
2017-11-17T19:18:02.094Z,4.12
2017-11-17T19:20:29.779Z,4.50
2017-11-17T19:22:57.398Z,6.18
2017-11-17T19:25:25.785Z,4.20
2017-11-17T19:27:54.269Z,4.30
2017-11-17T19:30:22.028Z,5.65
2017-11-17T19:32:49.731Z,3.97
2017-11-17T19:35:17.993Z,6.30
2017-11-17T19:37:46.422Z,3.95
2017-11-17T19:40:14.099Z,4.50
2017-11-17T19:42:41.765Z,3.58
2017-11-17T19:45:09.400Z,4.17
2017-11-17T19:47:37.387Z,5.43
2017-11-17T19:50:05.041Z,3.55
2017-11-17T19:52:32.862Z,4.05
2017-11-17T19:55:00.832Z,3.90
2017-11-17T19:57:28.444Z,3.30
2017-11-17T19:59:56.223Z,5.57
2017-11-17T20:02:24.644Z,4.07
2017-11-17T20:04:52.482Z,4.70
2017-11-17T20:07:20.356Z,5.03
2017-11-17T20:09:48.804Z,3.55
2017-11-17T20:12:17.193Z,4.12
2017-11-17T20:14:44.928Z,4.15
2017-11-17T20:17:12.603Z,6.43
2017-11-17T20:19:40.275Z,5.55
2017-11-17T20:22:08.900Z,4.33
2017-11-17T20:24:37.293Z,4.10
2017-11-17T20:27:05.777Z,3.83
2017-11-17T20:29:33.484Z,4.47
2017-11-17T20:32:01.373Z,4.00
2017-11-17T20:34:29.002Z,4.12
2017-11-17T20:36:57.242Z,3.53
2017-11-17T20:39:25.695Z,3.62
2017-11-17T20:41:53.336Z,3.40
2017-11-17T20:44:20.967Z,3.87
2017-11-17T20:46:48.590Z,3.72
2017-11-17T20:49:16.191Z,4.62
2017-11-17T20:51:43.822Z,3.95
2017-11-17T20:54:11.448Z,4.03
2017-11-17T20:56:39.917Z,4.47
2017-11-17T20:59:07.588Z,4.30
2017-11-17T21:01:36.047Z,3.50
2017-11-17T21:04:04.582Z,3.40
2017-11-17T21:06:32.179Z,4.53
2017-11-17T21:08:59.894Z,3.75
2017-11-17T21:11:27.671Z,3.67
2017-11-17T21:13:55.316Z,3.80
2017-11-17T21:16:22.972Z,3.75
2017-11-17T21:18:50.609Z,3.57
2017-11-17T21:21:18.210Z,3.55
2017-11-17T21:23:46.253Z,3.60
2017-11-17T21:26:13.855Z,3.72
2017-11-17T21:28:41.507Z,4.12
2017-11-17T21:31:09.118Z,3.67
2017-11-17T21:33:36.778Z,3.53
2017-11-17T21:36:05.175Z,4.00
2017-11-17T21:38:32.833Z,3.92
2017-11-17T21:41:01.525Z,3.70
2017-11-17T21:43:29.209Z,3.85
2017-11-17T21:45:56.907Z,3.75
2017-11-17T21:48:24.516Z,4.18
2017-11-17T21:50:53.116Z,3.70
2017-11-17T21:53:21.687Z,3.95
2017-11-17T21:55:49.530Z,3.60
2017-11-17T21:58:18.138Z,4.15
2017-11-17T22:00:45.790Z,3.85
2017-11-17T22:03:13.540Z,4.35
2017-11-17T22:05:41.216Z,3.72
2017-11-17T22:08:08.794Z,3.70
2017-11-17T22:10:36.444Z,3.55
2017-11-17T22:13:04.844Z,3.87
2017-11-17T22:15:33.289Z,5.10
2017-11-17T22:18:00.900Z,3.93
2017-11-17T22:20:29.294Z,4.03
2017-11-17T22:22:56.907Z,3.87
2017-11-17T22:25:24.556Z,3.55
2017-11-17T22:27:52.175Z,3.60
2017-11-17T22:30:19.801Z,3.77
2017-11-17T22:32:47.439Z,3.87
2017-11-17T22:35:15.818Z,3.85
2017-11-17T22:37:44.634Z,4.12
2017-11-17T22:40:12.274Z,3.97
2017-11-17T22:42:40.846Z,3.92
2017-11-17T22:45:09.358Z,3.35
2017-11-17T22:47:37.802Z,3.97
2017-11-17T22:50:05.410Z,3.70
2017-11-17T22:52:33.813Z,3.83
2017-11-17T22:55:01.488Z,3.72
2017-11-17T22:57:29.186Z,3.97
2017-11-17T22:59:56.880Z,4.12
2017-11-17T23:02:24.631Z,4.10
2017-11-17T23:04:52.268Z,3.92
2017-11-17T23:07:20.245Z,4.32
2017-11-17T23:09:47.941Z,4.15
2017-11-17T23:12:17.426Z,4.65
2017-11-17T23:14:45.971Z,4.13
2017-11-17T23:17:13.590Z,4.37
2017-11-17T23:19:41.298Z,3.90
2017-11-17T23:22:09.711Z,4.22
2017-11-17T23:24:37.703Z,3.70
2017-11-17T23:27:05.340Z,4.20
2017-11-17T23:29:33.229Z,3.50
2017-11-17T23:32:00.943Z,4.25
2017-11-17T23:34:28.746Z,3.47
2017-11-17T23:36:56.374Z,3.65
2017-11-17T23:39:24.072Z,4.00
2017-11-17T23:41:51.707Z,4.18
2017-11-17T23:44:20.156Z,3.75
2017-11-17T23:46:47.798Z,3.78
2017-11-17T23:49:15.477Z,4.32
2017-11-17T23:51:43.689Z,3.78
2017-11-17T23:54:11.368Z,5.05
2017-11-17T23:56:39.016Z,3.80
2017-11-17T23:59:06.645Z,3.97
